createdAt,value
2019-03-25T00:01:29.179Z,65.65
2019-03-25T00:04:01.161Z,66.44
2019-03-25T00:06:33.341Z,69.39
2019-03-25T00:09:07.286Z,67.80
2019-03-25T00:11:39.231Z,69.39
2019-03-25T00:14:11.400Z,71.29
2019-03-25T00:16:43.279Z,71.60
2019-03-25T00:19:15.186Z,71.63
2019-03-25T00:21:47.221Z,71.78
2019-03-25T00:24:19.522Z,71.67
2019-03-25T00:26:51.329Z,72.29
2019-03-25T00:29:23.149Z,72.16
2019-03-25T00:31:55.071Z,70.80
2019-03-25T00:34:26.963Z,71.35
2019-03-25T00:36:58.859Z,71.84
2019-03-25T00:39:30.725Z,72.01
2019-03-25T00:42:02.726Z,71.21
2019-03-25T00:44:34.614Z,71.49
2019-03-25T00:47:06.714Z,71.40
2019-03-25T00:49:38.811Z,72.36
2019-03-25T00:52:10.792Z,72.62
2019-03-25T00:54:49.907Z,72.49
2019-03-25T00:57:16.358Z,72.69
2019-03-25T00:59:49.054Z,72.07
2019-03-25T01:02:21.084Z,68.77
2019-03-25T01:04:52.901Z,68.31
2019-03-25T01:07:25.035Z,67.52
2019-03-25T01:09:56.938Z,67.04
2019-03-25T01:12:28.943Z,65.75
2019-03-25T01:15:00.800Z,64.97
2019-03-25T01:17:32.683Z,64.84
2019-03-25T01:20:05.956Z,65.69
2019-03-25T01:22:37.912Z,65.48
2019-03-25T01:25:10.482Z,65.60
2019-03-25T01:27:42.441Z,66.18
2019-03-25T01:30:14.726Z,65.05
2019-03-25T01:32:46.546Z,67.48
2019-03-25T01:35:18.458Z,68.25
2019-03-25T01:37:50.394Z,70.40
2019-03-25T01:40:22.234Z,68.81
2019-03-25T01:42:54.089Z,66.62
2019-03-25T01:45:26.108Z,66.78
2019-03-25T01:47:59.078Z,66.37
2019-03-25T01:50:31.164Z,66.98
2019-03-25T01:53:03.038Z,65.66
2019-03-25T01:55:34.896Z,65.48
2019-03-25T01:58:06.816Z,65.62
2019-03-25T02:00:38.959Z,67.63
2019-03-25T02:03:10.839Z,67.74
2019-03-25T02:05:42.826Z,67.32
2019-03-25T02:08:14.703Z,68.01
2019-03-25T02:10:46.605Z,66.92
2019-03-25T02:13:18.616Z,66.25
2019-03-25T02:15:50.601Z,66.82
2019-03-25T02:18:22.548Z,66.24
2019-03-25T02:20:54.511Z,68.83
2019-03-25T02:23:26.339Z,70.86
2019-03-25T02:25:58.191Z,68.91
2019-03-25T02:28:30.195Z,70.13
2019-03-25T02:31:02.166Z,69.20
2019-03-25T02:33:34.218Z,68.56
2019-03-25T02:36:06.104Z,67.53
2019-03-25T02:38:38.071Z,67.28
2019-03-25T02:41:11.656Z,67.35
2019-03-25T02:43:43.560Z,67.36
2019-03-25T02:46:15.565Z,69.27
2019-03-25T02:48:47.912Z,68.52
2019-03-25T02:51:19.777Z,70.51
2019-03-25T02:53:51.666Z,71.23
2019-03-25T02:56:23.590Z,71.28
2019-03-25T02:58:55.401Z,71.28
2019-03-25T03:01:27.534Z,72.43
2019-03-25T03:03:59.510Z,71.03
2019-03-25T03:06:32.435Z,72.38
2019-03-25T03:09:05.165Z,72.52
2019-03-25T03:11:37.319Z,72.18
2019-03-25T03:14:09.404Z,71.32
2019-03-25T03:16:41.256Z,70.48
2019-03-25T03:19:13.416Z,69.27
2019-03-25T03:21:45.318Z,70.22
2019-03-25T03:24:17.123Z,71.00
2019-03-25T03:26:49.037Z,71.55
2019-03-25T03:29:20.860Z,73.19
2019-03-25T03:31:52.691Z,73.88
2019-03-25T03:34:24.604Z,73.19
2019-03-25T03:36:56.514Z,74.13
2019-03-25T03:39:29.496Z,73.73
2019-03-25T03:42:02.416Z,73.05
2019-03-25T03:44:34.247Z,73.59
2019-03-25T03:47:06.360Z,74.67
2019-03-25T03:49:38.290Z,75.04
2019-03-25T03:52:10.469Z,74.13
2019-03-25T03:54:42.404Z,75.33
2019-03-25T03:57:14.918Z,75.79
2019-03-25T03:59:47.037Z,75.50
2019-03-25T04:02:18.979Z,74.46
2019-03-25T04:04:51.013Z,74.60
2019-03-25T04:07:23.100Z,74.95
2019-03-25T04:09:54.987Z,74.26
2019-03-25T04:12:27.298Z,73.39
2019-03-25T04:14:59.301Z,73.31
2019-03-25T04:17:31.404Z,74.07
2019-03-25T04:20:03.324Z,73.83
2019-03-25T04:22:35.166Z,72.64
2019-03-25T04:25:07.441Z,71.13
2019-03-25T04:27:39.375Z,69.94
2019-03-25T04:30:11.435Z,70.90
2019-03-25T04:32:43.501Z,72.09
2019-03-25T04:35:15.417Z,70.51
2019-03-25T04:37:47.337Z,71.06
2019-03-25T04:40:19.401Z,72.66
2019-03-25T04:42:51.391Z,72.38
2019-03-25T04:45:23.358Z,73.26
2019-03-25T04:47:55.526Z,73.62
2019-03-25T04:50:27.444Z,73.25
2019-03-25T04:52:59.456Z,71.83
2019-03-25T04:55:31.381Z,72.55
2019-03-25T04:58:03.382Z,73.03
2019-03-25T05:00:37.460Z,74.51
2019-03-25T05:03:09.424Z,72.56
2019-03-25T05:05:41.291Z,74.43
2019-03-25T05:08:13.263Z,73.73
2019-03-25T05:10:45.763Z,72.34
2019-03-25T05:13:17.625Z,73.66
2019-03-25T05:15:49.557Z,73.02
2019-03-25T05:18:21.539Z,73.88
2019-03-25T05:20:53.364Z,74.70
2019-03-25T05:23:25.473Z,74.61
2019-03-25T05:25:57.496Z,73.64
2019-03-25T05:28:29.374Z,74.44
2019-03-25T05:31:01.319Z,74.12
2019-03-25T05:33:33.205Z,73.36
2019-03-25T05:36:05.293Z,71.62
2019-03-25T05:38:37.311Z,73.89
2019-03-25T05:41:09.389Z,75.03
2019-03-25T05:43:41.449Z,73.83
2019-03-25T05:46:13.319Z,74.79
2019-03-25T05:48:46.277Z,74.86
2019-03-25T05:51:18.353Z,74.40
2019-03-25T05:53:50.533Z,74.78
2019-03-25T05:56:22.831Z,74.73
2019-03-25T05:58:54.752Z,73.29
2019-03-25T06:01:27.039Z,73.31
2019-03-25T06:03:59.919Z,72.82
2019-03-25T06:06:31.982Z,73.62
2019-03-25T06:09:04.934Z,72.23
2019-03-25T06:11:37.038Z,71.33
2019-03-25T06:14:08.995Z,70.57
2019-03-25T06:16:40.846Z,68.67
2019-03-25T06:19:12.706Z,70.29
2019-03-25T06:21:45.747Z,69.69
2019-03-25T06:24:17.598Z,69.39
2019-03-25T06:26:49.685Z,70.37
2019-03-25T06:29:21.520Z,70.00
2019-03-25T06:31:53.454Z,70.02
2019-03-25T06:34:25.540Z,69.00
2019-03-25T06:36:57.489Z,69.12
2019-03-25T06:39:29.463Z,68.49
2019-03-25T06:42:01.495Z,68.67
2019-03-25T06:44:33.383Z,67.10
2019-03-25T06:47:05.351Z,65.10
2019-03-25T06:49:37.193Z,63.71
2019-03-25T06:52:09.057Z,62.26
2019-03-25T06:54:40.925Z,62.07
2019-03-25T06:57:12.787Z,60.11
2019-03-25T06:59:44.974Z,59.86
2019-03-25T07:02:16.997Z,61.03
2019-03-25T07:04:48.858Z,59.95
2019-03-25T07:07:20.695Z,59.41
2019-03-25T07:09:52.508Z,59.72
2019-03-25T07:12:24.890Z,58.65
2019-03-25T07:14:56.878Z,58.15
2019-03-25T07:17:28.769Z,58.37
2019-03-25T07:20:00.703Z,57.80
2019-03-25T07:22:32.607Z,58.18
2019-03-25T07:25:04.856Z,58.44
2019-03-25T07:27:37.405Z,58.91
2019-03-25T07:30:11.596Z,57.47
2019-03-25T07:32:43.473Z,56.31
2019-03-25T07:35:15.435Z,57.25
2019-03-25T07:37:47.218Z,57.31
2019-03-25T07:40:19.303Z,57.82
2019-03-25T07:42:51.378Z,58.94
2019-03-25T07:45:23.253Z,57.94
2019-03-25T07:47:55.197Z,56.68
2019-03-25T07:50:27.360Z,57.52
2019-03-25T07:52:59.440Z,57.13
2019-03-25T07:55:31.436Z,57.65
2019-03-25T07:58:03.439Z,58.24
2019-03-25T08:00:35.355Z,57.86
2019-03-25T08:03:07.368Z,57.61
2019-03-25T08:05:39.295Z,58.41
2019-03-25T08:08:11.220Z,56.69
2019-03-25T08:10:43.277Z,56.08
2019-03-25T08:13:15.308Z,55.37
2019-03-25T08:15:47.191Z,55.12
2019-03-25T08:18:19.349Z,54.07
2019-03-25T08:20:51.300Z,52.57
2019-03-25T08:23:23.239Z,53.87
2019-03-25T08:25:55.362Z,54.64
2019-03-25T08:28:27.421Z,54.24
2019-03-25T08:30:59.316Z,55.79
2019-03-25T08:33:31.317Z,52.46
2019-03-25T08:36:03.258Z,52.29
2019-03-25T08:38:35.204Z,51.85
2019-03-25T08:41:07.293Z,51.30
2019-03-25T08:43:39.180Z,50.52
2019-03-25T08:46:11.078Z,49.59
2019-03-25T08:48:43.107Z,48.59
2019-03-25T08:51:15.209Z,49.96
2019-03-25T08:53:47.161Z,51.13
2019-03-25T08:56:19.142Z,50.69
2019-03-25T08:58:51.020Z,50.85
2019-03-25T09:01:23.032Z,51.09
2019-03-25T09:03:55.077Z,51.23
2019-03-25T09:06:27.010Z,50.30
2019-03-25T09:08:59.002Z,51.51
2019-03-25T09:11:30.986Z,50.82
2019-03-25T09:14:02.847Z,52.27
2019-03-25T09:16:34.708Z,52.05
2019-03-25T09:19:07.000Z,52.47
2019-03-25T09:21:39.043Z,52.59
2019-03-25T09:24:10.990Z,52.53
2019-03-25T09:26:42.971Z,52.81
2019-03-25T09:29:15.136Z,52.61
2019-03-25T09:31:47.139Z,53.04
2019-03-25T09:34:19.142Z,50.89
2019-03-25T09:36:50.953Z,51.62
2019-03-25T09:39:22.773Z,51.16
2019-03-25T09:41:54.672Z,50.15
2019-03-25T09:44:26.607Z,48.96
2019-03-25T09:46:58.604Z,49.05
2019-03-25T09:49:30.570Z,48.46
2019-03-25T09:52:02.581Z,49.43
2019-03-25T09:54:34.574Z,48.81
2019-03-25T09:57:06.655Z,48.66
2019-03-25T09:59:38.474Z,49.94
2019-03-25T10:02:10.449Z,50.22
2019-03-25T10:04:42.429Z,49.56
2019-03-25T10:07:23.604Z,49.80
2019-03-25T10:09:55.884Z,50.97
2019-03-25T10:12:28.231Z,48.81
2019-03-25T10:15:00.352Z,49.38
2019-03-25T10:17:32.355Z,48.07
2019-03-25T10:20:04.566Z,47.84
2019-03-25T10:22:36.445Z,48.49
2019-03-25T10:25:09.585Z,48.16
2019-03-25T10:27:41.742Z,46.98
2019-03-25T10:30:14.887Z,45.55
2019-03-25T10:32:46.801Z,44.88
2019-03-25T10:35:18.790Z,46.12
2019-03-25T10:37:50.672Z,45.83
2019-03-25T10:40:22.704Z,42.77
2019-03-25T10:42:54.675Z,42.16
2019-03-25T10:45:27.049Z,41.97
2019-03-25T10:47:58.995Z,40.24
2019-03-25T10:50:30.957Z,41.26
2019-03-25T10:53:02.996Z,40.98
2019-03-25T10:55:35.101Z,41.02
2019-03-25T10:58:07.072Z,40.13
2019-03-25T11:00:39.542Z,39.45
2019-03-25T11:03:12.294Z,40.15
2019-03-25T11:05:44.382Z,39.24
2019-03-25T11:08:16.194Z,39.56
2019-03-25T11:10:49.349Z,39.16
2019-03-25T11:13:21.313Z,39.04
2019-03-25T11:15:53.441Z,38.22
2019-03-25T11:18:25.297Z,39.18
2019-03-25T11:20:57.197Z,39.99
2019-03-25T11:23:29.007Z,40.42
2019-03-25T11:26:00.825Z,39.95
2019-03-25T11:28:32.694Z,41.63
2019-03-25T11:31:04.795Z,39.92
2019-03-25T11:33:36.724Z,38.31
2019-03-25T11:36:08.997Z,38.82
2019-03-25T11:38:40.958Z,38.95
2019-03-25T11:41:13.133Z,37.60
2019-03-25T11:43:45.022Z,36.97
2019-03-25T11:46:17.095Z,37.52
2019-03-25T11:48:48.957Z,37.05
2019-03-25T11:51:20.887Z,37.32
2019-03-25T11:53:52.892Z,38.80
2019-03-25T11:56:24.866Z,37.71
2019-03-25T11:58:56.857Z,37.57
2019-03-25T12:01:28.758Z,38.53
2019-03-25T12:04:00.739Z,39.58
2019-03-25T12:06:32.725Z,40.14
2019-03-25T12:09:06.752Z,39.39
2019-03-25T12:11:38.585Z,39.95
2019-03-25T12:14:10.651Z,41.00
2019-03-25T12:16:42.625Z,40.22
2019-03-25T12:19:14.454Z,41.72
2019-03-25T12:21:46.529Z,41.49
2019-03-25T12:24:18.696Z,43.15
2019-03-25T12:26:50.740Z,42.52
2019-03-25T12:29:30.035Z,42.71
2019-03-25T12:31:56.240Z,42.55
2019-03-25T12:34:28.180Z,41.04
2019-03-25T12:37:00.377Z,40.59
2019-03-25T12:39:33.422Z,40.65
2019-03-25T12:42:06.557Z,41.02
2019-03-25T12:44:38.577Z,41.29
2019-03-25T12:47:10.485Z,40.72
2019-03-25T12:49:42.299Z,40.88
2019-03-25T12:52:14.268Z,41.31
2019-03-25T12:54:46.354Z,41.41
2019-03-25T12:57:18.413Z,41.36
2019-03-25T12:59:50.308Z,42.10
2019-03-25T13:02:22.466Z,42.19
2019-03-25T13:04:54.438Z,42.71
2019-03-25T13:07:26.652Z,42.60
2019-03-25T13:09:58.778Z,43.70
2019-03-25T13:12:30.742Z,42.66
2019-03-25T13:15:02.680Z,43.20
2019-03-25T13:17:34.901Z,42.90
2019-03-25T13:20:07.440Z,43.75
2019-03-25T13:22:39.273Z,45.98
2019-03-25T13:25:11.367Z,47.10
2019-03-25T13:27:43.327Z,47.91
2019-03-25T13:30:15.890Z,51.78
2019-03-25T13:32:47.887Z,54.06
2019-03-25T13:35:19.700Z,55.04
2019-03-25T13:37:51.666Z,55.77
2019-03-25T13:40:23.744Z,56.30
2019-03-25T13:42:55.737Z,55.90
2019-03-25T13:45:27.667Z,57.30
2019-03-25T13:47:59.703Z,58.24
2019-03-25T13:50:31.597Z,56.17
2019-03-25T13:53:03.535Z,56.05
2019-03-25T13:55:35.722Z,55.29
2019-03-25T13:58:07.514Z,54.94
2019-03-25T14:00:41.503Z,53.18
2019-03-25T14:03:13.479Z,53.05
2019-03-25T14:05:45.298Z,52.23
2019-03-25T14:08:18.080Z,53.05
2019-03-25T14:10:49.860Z,51.16
2019-03-25T14:13:21.803Z,52.33
2019-03-25T14:15:53.706Z,52.75
2019-03-25T14:18:25.622Z,54.30
2019-03-25T14:20:57.433Z,55.63
2019-03-25T14:23:29.239Z,57.27
2019-03-25T14:26:01.320Z,58.00
2019-03-25T14:28:33.311Z,61.06
2019-03-25T14:31:05.261Z,61.01
2019-03-25T14:33:37.225Z,59.49
2019-03-25T14:36:09.096Z,56.68
2019-03-25T14:38:41.206Z,55.09
2019-03-25T14:41:13.005Z,53.60
2019-03-25T14:43:44.838Z,54.77
2019-03-25T14:46:16.821Z,53.19
2019-03-25T14:48:48.670Z,53.60
2019-03-25T14:51:20.471Z,56.16
2019-03-25T14:53:52.384Z,59.06
2019-03-25T14:56:24.255Z,66.44
2019-03-25T14:58:56.298Z,75.15
2019-03-25T15:01:28.169Z,79.75
2019-03-25T15:04:00.000Z,76.57
2019-03-25T15:06:34.096Z,78.03
2019-03-25T15:09:07.529Z,79.03
2019-03-25T15:11:39.815Z,78.57
2019-03-25T15:14:11.882Z,76.46
2019-03-25T15:16:43.824Z,77.48
2019-03-25T15:19:16.285Z,76.74
2019-03-25T15:21:48.238Z,74.37
2019-03-25T15:24:20.149Z,74.30
2019-03-25T15:26:52.291Z,73.11
2019-03-25T15:29:24.267Z,71.74
2019-03-25T15:31:56.303Z,69.93
2019-03-25T15:34:28.220Z,72.29
2019-03-25T15:37:00.072Z,72.05
2019-03-25T15:39:31.902Z,70.41
2019-03-25T15:42:03.710Z,68.78
2019-03-25T15:44:35.679Z,66.51
2019-03-25T15:47:07.585Z,70.36
2019-03-25T15:49:39.683Z,66.59
2019-03-25T15:52:11.713Z,66.96
2019-03-25T15:54:43.506Z,66.60
2019-03-25T15:57:15.477Z,68.55
2019-03-25T15:59:47.681Z,66.85
2019-03-25T16:02:19.626Z,67.52
2019-03-25T16:04:51.485Z,65.66
2019-03-25T16:07:23.474Z,68.83
2019-03-25T16:09:55.284Z,69.69
2019-03-25T16:12:27.178Z,67.25
2019-03-25T16:14:59.199Z,67.27
2019-03-25T16:17:31.000Z,66.23
2019-03-25T16:20:02.997Z,66.34
2019-03-25T16:22:34.817Z,64.89
2019-03-25T16:25:07.886Z,65.00
2019-03-25T16:27:39.667Z,65.24
2019-03-25T16:30:12.067Z,67.79
2019-03-25T16:32:43.966Z,73.24
2019-03-25T16:35:16.191Z,77.53
2019-03-25T16:37:48.044Z,80.28
2019-03-25T16:40:20.124Z,80.17
2019-03-25T16:42:51.912Z,80.55
2019-03-25T16:45:24.780Z,80.83
2019-03-25T16:47:56.740Z,77.48
2019-03-25T16:50:28.638Z,77.94
2019-03-25T16:53:00.443Z,79.42
2019-03-25T16:55:32.268Z,77.42
2019-03-25T16:58:04.093Z,77.04
2019-03-25T17:00:36.000Z,76.15
2019-03-25T17:03:08.382Z,74.80
2019-03-25T17:05:42.353Z,75.91
2019-03-25T17:08:13.875Z,75.34
2019-03-25T17:10:45.758Z,75.26
2019-03-25T17:13:18.485Z,73.87
2019-03-25T17:15:50.622Z,74.76
2019-03-25T17:18:23.774Z,74.95
2019-03-25T17:20:55.751Z,74.61
2019-03-25T17:23:27.713Z,73.44
2019-03-25T17:25:59.910Z,73.09
2019-03-25T17:28:32.116Z,72.86
2019-03-25T17:31:04.112Z,75.82
2019-03-25T17:33:35.947Z,76.92
2019-03-25T17:36:08.026Z,75.72
2019-03-25T17:38:42.736Z,74.78
2019-03-25T17:41:13.692Z,75.22
2019-03-25T17:43:45.590Z,73.02
2019-03-25T17:46:17.426Z,75.89
2019-03-25T17:48:49.685Z,79.65
2019-03-25T17:51:21.595Z,78.76
2019-03-25T17:53:53.676Z,77.38
2019-03-25T17:56:25.717Z,74.96
2019-03-25T17:58:57.697Z,75.20
2019-03-25T18:01:34.825Z,76.41
2019-03-25T18:04:06.913Z,75.40
2019-03-25T18:06:38.891Z,74.35
2019-03-25T18:09:11.891Z,74.20
2019-03-25T18:11:43.867Z,73.77
2019-03-25T18:14:15.813Z,73.30
2019-03-25T18:16:48.905Z,71.79
2019-03-25T18:19:21.931Z,74.27
2019-03-25T18:21:54.005Z,73.46
2019-03-25T18:24:26.213Z,74.54
2019-03-25T18:26:58.203Z,75.44
2019-03-25T18:29:29.995Z,75.36
2019-03-25T18:32:01.992Z,76.21
2019-03-25T18:34:33.806Z,76.75
2019-03-25T18:37:05.802Z,76.38
2019-03-25T18:39:37.939Z,76.71
2019-03-25T18:42:09.931Z,76.67
2019-03-25T18:44:41.954Z,78.23
2019-03-25T18:47:14.002Z,78.98
2019-03-25T18:49:45.996Z,80.43
2019-03-25T18:52:18.167Z,81.01
2019-03-25T18:54:50.279Z,80.74
2019-03-25T18:57:22.206Z,80.17
2019-03-25T18:59:54.411Z,78.73
2019-03-25T19:02:26.767Z,77.67
2019-03-25T19:04:58.996Z,78.12
2019-03-25T19:07:31.098Z,77.57
2019-03-25T19:10:04.526Z,77.41
2019-03-25T19:12:36.879Z,77.42
2019-03-25T19:15:09.169Z,76.37
2019-03-25T19:17:41.079Z,75.67
2019-03-25T19:20:12.977Z,75.01
2019-03-25T19:22:44.971Z,76.22
2019-03-25T19:25:17.074Z,74.87
2019-03-25T19:27:49.475Z,75.87
2019-03-25T19:30:21.724Z,76.00
2019-03-25T19:32:53.833Z,76.03
2019-03-25T19:35:25.755Z,75.84
2019-03-25T19:37:57.746Z,76.10
2019-03-25T19:40:29.732Z,74.29
2019-03-25T19:43:01.682Z,74.44
2019-03-25T19:45:33.670Z,73.95
2019-03-25T19:48:06.941Z,75.13
2019-03-25T19:50:38.771Z,74.88
2019-03-25T19:53:19.029Z,73.84
2019-03-25T19:55:44.333Z,74.25
2019-03-25T19:58:16.292Z,74.59
2019-03-25T20:00:48.285Z,74.75
2019-03-25T20:03:20.141Z,73.88
2019-03-25T20:05:52.018Z,75.11
2019-03-25T20:08:23.887Z,75.85
2019-03-25T20:10:55.999Z,77.59
2019-03-25T20:13:27.856Z,74.40
2019-03-25T20:16:00.953Z,74.26
2019-03-25T20:18:32.804Z,74.93
2019-03-25T20:21:05.063Z,73.07
2019-03-25T20:23:37.048Z,73.31
2019-03-25T20:26:08.907Z,72.80
2019-03-25T20:28:40.949Z,73.20
2019-03-25T20:31:13.035Z,73.10
2019-03-25T20:33:45.123Z,75.91
2019-03-25T20:36:17.715Z,75.37
2019-03-25T20:38:50.230Z,74.07
2019-03-25T20:41:22.069Z,73.06
2019-03-25T20:43:53.922Z,74.50
2019-03-25T20:46:25.804Z,75.97
2019-03-25T20:48:57.682Z,75.01
2019-03-25T20:51:29.772Z,74.76
2019-03-25T20:54:01.764Z,74.10
2019-03-25T20:56:33.832Z,76.15
2019-03-25T20:59:07.085Z,77.59
2019-03-25T21:01:38.965Z,76.71
2019-03-25T21:04:11.872Z,75.06
2019-03-25T21:06:43.779Z,75.74
2019-03-25T21:09:15.588Z,74.92
2019-03-25T21:11:47.607Z,76.79
2019-03-25T21:14:19.497Z,75.83
2019-03-25T21:16:51.520Z,76.03
2019-03-25T21:19:23.743Z,75.57
2019-03-25T21:21:55.587Z,76.26
2019-03-25T21:24:27.954Z,76.40
2019-03-25T21:27:00.008Z,76.29
2019-03-25T21:29:32.210Z,75.63
2019-03-25T21:32:04.388Z,76.20
2019-03-25T21:34:36.719Z,75.84
2019-03-25T21:37:08.658Z,74.21
2019-03-25T21:39:40.753Z,75.60
2019-03-25T21:42:12.643Z,77.04
2019-03-25T21:44:44.824Z,76.75
2019-03-25T21:47:16.707Z,73.60
2019-03-25T21:49:48.703Z,74.12
2019-03-25T21:52:20.719Z,74.63
2019-03-25T21:54:53.005Z,75.67
2019-03-25T21:57:24.879Z,75.86
2019-03-25T21:59:57.231Z,75.33
2019-03-25T22:02:29.235Z,74.28
2019-03-25T22:05:01.301Z,73.71
2019-03-25T22:07:34.417Z,73.98
2019-03-25T22:10:06.953Z,74.72
2019-03-25T22:12:38.772Z,73.89
2019-03-25T22:15:11.535Z,75.49
2019-03-25T22:17:43.598Z,75.48
2019-03-25T22:20:16.033Z,75.33
2019-03-25T22:22:48.000Z,75.27
2019-03-25T22:25:20.212Z,74.07
2019-03-25T22:27:52.337Z,75.54
2019-03-25T22:30:25.896Z,77.04
2019-03-25T22:32:58.348Z,74.79
2019-03-25T22:35:30.399Z,75.07
2019-03-25T22:38:02.537Z,76.48
2019-03-25T22:40:34.446Z,75.55
2019-03-25T22:43:06.845Z,73.89
2019-03-25T22:45:38.925Z,74.17
2019-03-25T22:48:10.980Z,75.50
2019-03-25T22:50:43.145Z,73.36
2019-03-25T22:53:15.477Z,74.82
2019-03-25T22:55:47.698Z,74.04
2019-03-25T22:58:19.643Z,71.70
2019-03-25T23:00:51.827Z,71.61
2019-03-25T23:03:24.097Z,73.54
2019-03-25T23:05:56.496Z,73.32
2019-03-25T23:08:28.518Z,74.62
2019-03-25T23:11:00.725Z,74.05
2019-03-25T23:13:32.859Z,75.43
2019-03-25T23:16:05.290Z,77.07
2019-03-25T23:18:37.411Z,74.78
2019-03-25T23:21:09.442Z,73.53
2019-03-25T23:23:41.337Z,72.73
2019-03-25T23:26:14.385Z,73.58
2019-03-25T23:28:46.507Z,75.70
2019-03-25T23:31:19.062Z,75.09
2019-03-25T23:33:52.648Z,76.83
2019-03-25T23:36:25.319Z,76.92
2019-03-25T23:38:57.621Z,77.60
2019-03-25T23:41:29.850Z,77.04
2019-03-25T23:44:01.987Z,76.78
2019-03-25T23:46:34.428Z,74.30
2019-03-25T23:49:08.068Z,74.61
2019-03-25T23:51:40.275Z,72.10
2019-03-25T23:54:13.329Z,72.19
2019-03-25T23:56:45.943Z,71.48
2019-03-25T23:59:18.159Z,71.86
